Архив погоды в Елабуге

Метеограмма Елабуга
Понедельник, 22 Октября
Время местн. Темп Ветер Видим Явления Облачность нижн/средн/верх Атм. давл. Влжн Точка росы ВНГО R Сост. почвы Tg s
Напр Скр Прв ур.ст ур.м изм
09:00 +3.2° Ю 1 - 10 км - облачно 763 771 +0.2 67% -2.3° - - - - -
06:00 +1.5° С 1 - 10 км - облачно 763 771 -0.2 73% -2.8° 1 км 0 Влажная (без луж) - -
03:00 +1.8° С,С-З 1 - 10 км - облачно 763 771 +0.2 70% -3.1° 1 км - - - -
00:00 +2.6° С,С-З 2 - 10 км - облачно 762 771 +0.7 67% -2.9° 1 км - - - -
Воскресенье, 21 Октября
Время местн. Темп Ветер Видим Явления Облачность нижн/средн/верх Атм. давл. Влжн Точка росы ВНГО R Сост. почвы Tg s
Напр Скр Прв ур.ст ур.м изм
18:00 +4.7° З,С-З 1 - 10 км - облачно 761 770 +0.7 61% -2.1° 1 км 0 - - -
15:00 +5.5° З,С-З 2 - 10 км - облачно 760 769 +0.7 61% -1.4° 1 км - - - -
12:00 +6.1° З,С-З 2 - 10 км - облачно 760 768 +1.2 63% -0.5° 1 км - - - -
09:00 +5.1° С-З 2 - 10 км - облачно 759 767 +1.6 64% -1.1° 1 км - - - -
06:00 +4.6° С-З 2 - 10 км - облачно 757 765 +1.2 77% +1° 1 км 0 Влажная (без луж) - -
03:00 +5.1° З,С-З 2 - 10 км - облачно 756 764 +0.8 79% +1.7° 1 км - - - -
00:00 +4.3° З,С-З 2 - 10 км - облачно с прояснениями 755 763 +1.1 81% +1.4° 1 км - - - -
Суббота, 20 Октября
Время местн. Темп Ветер Видим Явления Облачность нижн/средн/верх Атм. давл. Влжн Точка росы ВНГО R Сост. почвы Tg s
Напр Скр Прв ур.ст ур.м изм
21:00 +5.6° З,С-З 3 - 10 км - переменная облачность 754 762 +1 76% +1.7° - - - - -
18:00 +6.8° С-З 2 - 10 км - переменная облачность 753 761 +1.6 65% +0.6° - 0.3 - - -
15:00 +10.6° С-З 4 - 10 км - переменная облачность 751 760 +0.9 52% +1.1° 1 км - - - -
12:00 +12.1° С-З 3 - 10 км - переменная облачность 750 759 +0.2 59% +4.4° 1 км - - - -
09:00 +10.4° З,С-З 2 - 10 км облака рассеиваются {дождь} переменная облачность 750 759 +0.5 77% +6.5° более 2.5 км - - - -
06:00 +10° С-З 2 - 10 км слабый непрерывный дождь облачно 750 758 -0.2 82% +7° 1 км 0 Влажная (без луж) - -
03:00 +11.6° З 2 - 10 км - облачно 750 758 -0.2 81% +8.4° 1 км - - - -
00:00 +13.1° З 3 - 10 км - облачно 750 758 -0.4 75% +8.7° 1 км - - - -
Пятница, 19 Октября
Время местн. Темп Ветер Видим Явления Облачность нижн/средн/верх Атм. давл. Влжн Точка росы ВНГО R Сост. почвы Tg s
Напр Скр Прв ур.ст ур.м изм
21:00 +13.1° З 2 - 10 км - облачно 751 759 -0.7 70% +7.8° 1 км - - - -
18:00 +13.1° З 4 - 10 км - облачно с прояснениями 751 759 -0.5 63% +6.2° 1 км 0 - - -
15:00 +13.7° Ю-З 3 - 10 км - переменная облачность 752 760 -0.5 63% +6.7° более 2.5 км - - - -
12:00 +13° З,Ю-З 3 - 10 км - переменная облачность 752 760 -0.8 65% +6.5° более 2.5 км - - - -
09:00 +8° З 3 - 10 км - облачно 753 761 -0.5 84% +5.4° - - - - -
06:00 +4.3° С-В 1 - 10 км - переменная облачность 754 762 -0.7 91% +2.9° более 2.5 км 0 Влажная (без луж) -
03:00 +7.7° Ю-З 2 - 10 км - облачно с прояснениями 754 762 -0.8 75% +3.6° - - - - -